sensor_id;sensor_type;location;lat;lon;timestamp;P1;durP1;ratioP1;P2;durP2;ratioP2
1885;SDS011;943;51.568;6.998;2022-07-06T00:00:29;8.27;;;3.57;;
1885;SDS011;943;51.568;6.998;2022-07-06T00:02:57;5.70;;;3.07;;
1885;SDS011;943;51.568;6.998;2022-07-06T00:05:25;5.57;;;3.50;;
1885;SDS011;943;51.568;6.998;2022-07-06T00:07:53;4.40;;;2.83;;
1885;SDS011;943;51.568;6.998;2022-07-06T00:10:20;5.70;;;3.23;;
1885;SDS011;943;51.568;6.998;2022-07-06T00:12:48;3.97;;;2.77;;
1885;SDS011;943;51.568;6.998;2022-07-06T00:15:16;5.57;;;3.33;;
1885;SDS011;943;51.568;6.998;2022-07-06T00:17:43;3.77;;;2.90;;
1885;SDS011;943;51.568;6.998;2022-07-06T00:20:12;4.90;;;3.57;;
1885;SDS011;943;51.568;6.998;2022-07-06T00:22:39;6.10;;;3.30;;
1885;SDS011;943;51.568;6.998;2022-07-06T00:25:08;6.37;;;3.00;;
1885;SDS011;943;51.568;6.998;2022-07-06T00:27:35;5.40;;;3.40;;
1885;SDS011;943;51.568;6.998;2022-07-06T00:30:03;7.20;;;3.80;;
1885;SDS011;943;51.568;6.998;2022-07-06T00:32:32;7.33;;;3.20;;
1885;SDS011;943;51.568;6.998;2022-07-06T00:35:00;5.77;;;3.00;;
1885;SDS011;943;51.568;6.998;2022-07-06T00:37:27;8.50;;;2.60;;
1885;SDS011;943;51.568;6.998;2022-07-06T00:39:55;5.90;;;3.30;;
1885;SDS011;943;51.568;6.998;2022-07-06T00:42:23;6.03;;;3.07;;
1885;SDS011;943;51.568;6.998;2022-07-06T00:44:51;4.30;;;2.70;;
1885;SDS011;943;51.568;6.998;2022-07-06T00:47:19;6.03;;;2.67;;
1885;SDS011;943;51.568;6.998;2022-07-06T00:49:46;5.10;;;3.03;;
1885;SDS011;943;51.568;6.998;2022-07-06T00:52:32;3.30;;;2.60;;
1885;SDS011;943;51.568;6.998;2022-07-06T00:55:00;4.53;;;3.07;;
1885;SDS011;943;51.568;6.998;2022-07-06T00:57:28;6.83;;;2.70;;
1885;SDS011;943;51.568;6.998;2022-07-06T00:59:56;5.23;;;2.60;;
1885;SDS011;943;51.568;6.998;2022-07-06T01:02:25;7.00;;;2.40;;
1885;SDS011;943;51.568;6.998;2022-07-06T01:04:52;5.20;;;2.50;;
1885;SDS011;943;51.568;6.998;2022-07-06T01:07:20;5.73;;;2.30;;
1885;SDS011;943;51.568;6.998;2022-07-06T01:09:47;3.93;;;2.40;;
1885;SDS011;943;51.568;6.998;2022-07-06T01:12:15;3.80;;;2.00;;
1885;SDS011;943;51.568;6.998;2022-07-06T01:14:44;5.27;;;2.87;;
1885;SDS011;943;51.568;6.998;2022-07-06T01:17:13;4.03;;;2.40;;
1885;SDS011;943;51.568;6.998;2022-07-06T01:19:43;3.43;;;2.43;;
1885;SDS011;943;51.568;6.998;2022-07-06T01:22:11;4.33;;;2.70;;
1885;SDS011;943;51.568;6.998;2022-07-06T01:24:39;3.40;;;2.20;;
1885;SDS011;943;51.568;6.998;2022-07-06T01:27:07;4.07;;;2.50;;
1885;SDS011;943;51.568;6.998;2022-07-06T01:29:35;5.97;;;2.83;;
1885;SDS011;943;51.568;6.998;2022-07-06T01:32:03;8.13;;;2.30;;
1885;SDS011;943;51.568;6.998;2022-07-06T01:34:32;4.77;;;2.73;;
1885;SDS011;943;51.568;6.998;2022-07-06T01:37:01;4.13;;;2.73;;
1885;SDS011;943;51.568;6.998;2022-07-06T01:39:29;4.70;;;2.67;;
1885;SDS011;943;51.568;6.998;2022-07-06T01:41:56;5.73;;;2.83;;
1885;SDS011;943;51.568;6.998;2022-07-06T01:44:24;6.17;;;2.97;;
1885;SDS011;943;51.568;6.998;2022-07-06T01:46:51;4.03;;;3.10;;
1885;SDS011;943;51.568;6.998;2022-07-06T01:49:19;6.93;;;3.63;;
1885;SDS011;943;51.568;6.998;2022-07-06T01:51:46;5.53;;;3.13;;
1885;SDS011;943;51.568;6.998;2022-07-06T01:54:14;5.27;;;3.33;;
1885;SDS011;943;51.568;6.998;2022-07-06T01:56:42;4.87;;;3.20;;
1885;SDS011;943;51.568;6.998;2022-07-06T01:59:09;6.27;;;3.60;;
1885;SDS011;943;51.568;6.998;2022-07-06T02:01:37;4.30;;;3.37;;
1885;SDS011;943;51.568;6.998;2022-07-06T02:04:04;7.90;;;3.30;;
1885;SDS011;943;51.568;6.998;2022-07-06T02:06:32;5.43;;;3.43;;
1885;SDS011;943;51.568;6.998;2022-07-06T02:09:00;4.60;;;2.80;;
1885;SDS011;943;51.568;6.998;2022-07-06T02:11:28;5.53;;;3.83;;
1885;SDS011;943;51.568;6.998;2022-07-06T02:13:55;5.47;;;3.17;;
1885;SDS011;943;51.568;6.998;2022-07-06T02:16:23;5.47;;;3.07;;
1885;SDS011;943;51.568;6.998;2022-07-06T02:18:51;5.10;;;3.03;;
1885;SDS011;943;51.568;6.998;2022-07-06T02:21:18;5.40;;;3.30;;
1885;SDS011;943;51.568;6.998;2022-07-06T02:23:46;5.60;;;3.67;;
1885;SDS011;943;51.568;6.998;2022-07-06T02:26:14;4.97;;;3.57;;
1885;SDS011;943;51.568;6.998;2022-07-06T02:28:41;8.23;;;4.10;;
1885;SDS011;943;51.568;6.998;2022-07-06T02:31:09;6.33;;;3.50;;
1885;SDS011;943;51.568;6.998;2022-07-06T02:33:39;6.27;;;3.97;;
1885;SDS011;943;51.568;6.998;2022-07-06T02:36:08;6.23;;;3.77;;
1885;SDS011;943;51.568;6.998;2022-07-06T02:38:35;6.30;;;4.40;;
1885;SDS011;943;51.568;6.998;2022-07-06T02:41:03;5.83;;;4.27;;
1885;SDS011;943;51.568;6.998;2022-07-06T02:43:30;8.60;;;4.90;;
1885;SDS011;943;51.568;6.998;2022-07-06T02:45:58;7.23;;;4.60;;
1885;SDS011;943;51.568;6.998;2022-07-06T02:48:26;9.27;;;4.00;;
1885;SDS011;943;51.568;6.998;2022-07-06T02:50:53;6.73;;;4.40;;
1885;SDS011;943;51.568;6.998;2022-07-06T02:53:21;8.00;;;4.90;;
1885;SDS011;943;51.568;6.998;2022-07-06T02:55:49;12.73;;;5.17;;
1885;SDS011;943;51.568;6.998;2022-07-06T02:58:17;6.53;;;4.57;;
1885;SDS011;943;51.568;6.998;2022-07-06T03:00:45;7.33;;;4.30;;
1885;SDS011;943;51.568;6.998;2022-07-06T03:03:13;6.47;;;4.00;;
1885;SDS011;943;51.568;6.998;2022-07-06T03:05:41;8.80;;;4.73;;
1885;SDS011;943;51.568;6.998;2022-07-06T03:08:09;11.07;;;4.43;;
1885;SDS011;943;51.568;6.998;2022-07-06T03:10:37;5.07;;;4.53;;
1885;SDS011;943;51.568;6.998;2022-07-06T03:13:04;9.00;;;4.93;;
1885;SDS011;943;51.568;6.998;2022-07-06T03:15:32;11.90;;;4.50;;
1885;SDS011;943;51.568;6.998;2022-07-06T03:17:59;5.03;;;3.43;;
1885;SDS011;943;51.568;6.998;2022-07-06T03:20:27;10.93;;;4.37;;
1885;SDS011;943;51.568;6.998;2022-07-06T03:22:55;6.60;;;4.43;;
1885;SDS011;943;51.568;6.998;2022-07-06T03:25:22;5.70;;;3.80;;
1885;SDS011;943;51.568;6.998;2022-07-06T03:27:50;18.07;;;4.83;;
1885;SDS011;943;51.568;6.998;2022-07-06T03:30:17;6.70;;;4.07;;
1885;SDS011;943;51.568;6.998;2022-07-06T03:32:45;4.67;;;3.43;;
1885;SDS011;943;51.568;6.998;2022-07-06T03:35:12;10.87;;;4.77;;
1885;SDS011;943;51.568;6.998;2022-07-06T03:37:40;5.27;;;4.10;;
1885;SDS011;943;51.568;6.998;2022-07-06T03:40:08;6.87;;;4.03;;
1885;SDS011;943;51.568;6.998;2022-07-06T03:42:38;8.00;;;3.37;;
1885;SDS011;943;51.568;6.998;2022-07-06T03:45:06;7.77;;;3.80;;
1885;SDS011;943;51.568;6.998;2022-07-06T03:47:35;4.67;;;3.83;;
1885;SDS011;943;51.568;6.998;2022-07-06T03:50:03;6.83;;;3.63;;
1885;SDS011;943;51.568;6.998;2022-07-06T03:52:31;6.10;;;3.73;;
1885;SDS011;943;51.568;6.998;2022-07-06T03:55:01;5.03;;;3.50;;
1885;SDS011;943;51.568;6.998;2022-07-06T03:57:28;8.67;;;3.77;;
1885;SDS011;943;51.568;6.998;2022-07-06T03:59:56;5.23;;;3.47;;
1885;SDS011;943;51.568;6.998;2022-07-06T04:02:23;11.27;;;3.30;;
1885;SDS011;943;51.568;6.998;2022-07-06T04:04:51;8.37;;;4.07;;
1885;SDS011;943;51.568;6.998;2022-07-06T04:07:19;7.50;;;3.23;;
1885;SDS011;943;51.568;6.998;2022-07-06T04:09:46;5.60;;;4.33;;
1885;SDS011;943;51.568;6.998;2022-07-06T04:12:14;10.87;;;3.70;;
1885;SDS011;943;51.568;6.998;2022-07-06T04:14:42;4.77;;;3.00;;
1885;SDS011;943;51.568;6.998;2022-07-06T04:17:10;8.00;;;3.40;;
1885;SDS011;943;51.568;6.998;2022-07-06T04:19:56;7.40;;;3.50;;
1885;SDS011;943;51.568;6.998;2022-07-06T04:22:23;5.50;;;3.17;;
1885;SDS011;943;51.568;6.998;2022-07-06T04:24:51;6.40;;;3.23;;
1885;SDS011;943;51.568;6.998;2022-07-06T04:27:19;5.87;;;2.83;;
1885;SDS011;943;51.568;6.998;2022-07-06T04:29:46;4.27;;;2.90;;
1885;SDS011;943;51.568;6.998;2022-07-06T04:32:14;9.87;;;3.23;;
1885;SDS011;943;51.568;6.998;2022-07-06T04:34:48;8.70;;;2.90;;
1885;SDS011;943;51.568;6.998;2022-07-06T04:37:15;5.90;;;3.23;;
1885;SDS011;943;51.568;6.998;2022-07-06T04:39:43;6.43;;;2.67;;
1885;SDS011;943;51.568;6.998;2022-07-06T04:42:10;5.60;;;2.90;;
1885;SDS011;943;51.568;6.998;2022-07-06T04:44:38;6.23;;;2.60;;
1885;SDS011;943;51.568;6.998;2022-07-06T04:47:05;5.40;;;3.57;;
1885;SDS011;943;51.568;6.998;2022-07-06T04:49:34;6.13;;;2.90;;
1885;SDS011;943;51.568;6.998;2022-07-06T04:52:01;6.30;;;2.77;;
1885;SDS011;943;51.568;6.998;2022-07-06T04:54:30;12.00;;;3.63;;
1885;SDS011;943;51.568;6.998;2022-07-06T04:56:58;6.13;;;2.97;;
1885;SDS011;943;51.568;6.998;2022-07-06T04:59:26;5.20;;;2.80;;
1885;SDS011;943;51.568;6.998;2022-07-06T05:01:53;6.40;;;2.57;;
1885;SDS011;943;51.568;6.998;2022-07-06T05:04:21;5.67;;;2.60;;
1885;SDS011;943;51.568;6.998;2022-07-06T05:06:50;8.03;;;3.10;;
1885;SDS011;943;51.568;6.998;2022-07-06T05:09:18;5.20;;;2.73;;
1885;SDS011;943;51.568;6.998;2022-07-06T05:11:45;7.63;;;3.40;;
1885;SDS011;943;51.568;6.998;2022-07-06T05:14:13;5.07;;;3.03;;
1885;SDS011;943;51.568;6.998;2022-07-06T05:16:40;5.37;;;2.80;;
1885;SDS011;943;51.568;6.998;2022-07-06T05:19:08;6.60;;;3.80;;
1885;SDS011;943;51.568;6.998;2022-07-06T05:21:36;9.93;;;3.63;;
1885;SDS011;943;51.568;6.998;2022-07-06T05:24:03;5.43;;;2.93;;
1885;SDS011;943;51.568;6.998;2022-07-06T05:26:31;5.20;;;2.47;;
1885;SDS011;943;51.568;6.998;2022-07-06T05:28:59;7.03;;;2.77;;
1885;SDS011;943;51.568;6.998;2022-07-06T05:31:26;6.67;;;2.87;;
1885;SDS011;943;51.568;6.998;2022-07-06T05:33:54;4.30;;;3.10;;
1885;SDS011;943;51.568;6.998;2022-07-06T05:36:22;4.17;;;2.73;;
1885;SDS011;943;51.568;6.998;2022-07-06T05:38:49;7.73;;;2.40;;
1885;SDS011;943;51.568;6.998;2022-07-06T05:41:17;13.27;;;2.87;;
1885;SDS011;943;51.568;6.998;2022-07-06T05:43:44;5.10;;;2.37;;
1885;SDS011;943;51.568;6.998;2022-07-06T05:46:12;8.43;;;2.43;;
1885;SDS011;943;51.568;6.998;2022-07-06T05:48:39;5.87;;;2.50;;
1885;SDS011;943;51.568;6.998;2022-07-06T05:51:25;4.67;;;1.67;;
1885;SDS011;943;51.568;6.998;2022-07-06T05:53:53;5.10;;;2.17;;
1885;SDS011;943;51.568;6.998;2022-07-06T05:56:20;5.57;;;2.17;;
1885;SDS011;943;51.568;6.998;2022-07-06T05:58:48;6.13;;;2.00;;
1885;SDS011;943;51.568;6.998;2022-07-06T06:01:15;6.20;;;2.20;;
1885;SDS011;943;51.568;6.998;2022-07-06T06:03:43;3.97;;;2.20;;
1885;SDS011;943;51.568;6.998;2022-07-06T06:06:11;4.77;;;1.87;;
1885;SDS011;943;51.568;6.998;2022-07-06T06:08:38;5.13;;;1.80;;
1885;SDS011;943;51.568;6.998;2022-07-06T06:11:06;4.37;;;2.47;;
1885;SDS011;943;51.568;6.998;2022-07-06T06:13:36;9.83;;;1.97;;
1885;SDS011;943;51.568;6.998;2022-07-06T06:16:04;3.93;;;1.47;;
1885;SDS011;943;51.568;6.998;2022-07-06T06:18:32;3.90;;;1.80;;
1885;SDS011;943;51.568;6.998;2022-07-06T06:21:07;3.40;;;1.37;;
1885;SDS011;943;51.568;6.998;2022-07-06T06:23:36;3.07;;;1.40;;
1885;SDS011;943;51.568;6.998;2022-07-06T06:26:03;10.90;;;1.67;;
1885;SDS011;943;51.568;6.998;2022-07-06T06:28:31;4.50;;;1.40;;
1885;SDS011;943;51.568;6.998;2022-07-06T06:30:59;3.90;;;1.90;;
1885;SDS011;943;51.568;6.998;2022-07-06T06:33:27;8.90;;;1.50;;
1885;SDS011;943;51.568;6.998;2022-07-06T06:35:54;6.90;;;2.70;;
1885;SDS011;943;51.568;6.998;2022-07-06T06:38:22;5.67;;;1.50;;
1885;SDS011;943;51.568;6.998;2022-07-06T06:40:55;4.47;;;1.60;;
1885;SDS011;943;51.568;6.998;2022-07-06T06:43:24;4.23;;;1.20;;
1885;SDS011;943;51.568;6.998;2022-07-06T06:45:54;4.53;;;1.40;;
1885;SDS011;943;51.568;6.998;2022-07-06T06:48:22;6.70;;;1.50;;
1885;SDS011;943;51.568;6.998;2022-07-06T06:50:49;3.53;;;1.40;;
1885;SDS011;943;51.568;6.998;2022-07-06T06:53:17;3.00;;;1.30;;
1885;SDS011;943;51.568;6.998;2022-07-06T06:55:45;2.80;;;1.20;;
1885;SDS011;943;51.568;6.998;2022-07-06T06:58:13;4.30;;;1.40;;
1885;SDS011;943;51.568;6.998;2022-07-06T07:00:40;5.13;;;1.50;;
1885;SDS011;943;51.568;6.998;2022-07-06T07:03:09;4.77;;;1.23;;
1885;SDS011;943;51.568;6.998;2022-07-06T07:05:37;3.07;;;0.93;;
1885;SDS011;943;51.568;6.998;2022-07-06T07:08:05;3.60;;;1.20;;
1885;SDS011;943;51.568;6.998;2022-07-06T07:10:32;6.33;;;1.57;;
1885;SDS011;943;51.568;6.998;2022-07-06T07:13:00;2.73;;;1.03;;
1885;SDS011;943;51.568;6.998;2022-07-06T07:15:28;2.07;;;1.00;;
1885;SDS011;943;51.568;6.998;2022-07-06T07:17:55;3.40;;;1.43;;
1885;SDS011;943;51.568;6.998;2022-07-06T07:20:23;5.03;;;0.80;;
1885;SDS011;943;51.568;6.998;2022-07-06T07:22:51;3.53;;;1.10;;
1885;SDS011;943;51.568;6.998;2022-07-06T07:25:19;6.37;;;1.20;;
1885;SDS011;943;51.568;6.998;2022-07-06T07:27:46;3.37;;;1.30;;
1885;SDS011;943;51.568;6.998;2022-07-06T07:30:14;3.20;;;1.20;;
1885;SDS011;943;51.568;6.998;2022-07-06T07:32:42;3.40;;;1.00;;
1885;SDS011;943;51.568;6.998;2022-07-06T07:35:10;8.10;;;6.07;;
1885;SDS011;943;51.568;6.998;2022-07-06T07:37:38;3.60;;;1.17;;
1885;SDS011;943;51.568;6.998;2022-07-06T07:40:06;4.37;;;1.40;;
1885;SDS011;943;51.568;6.998;2022-07-06T07:42:35;5.03;;;1.10;;
1885;SDS011;943;51.568;6.998;2022-07-06T07:45:07;7.70;;;1.57;;
1885;SDS011;943;51.568;6.998;2022-07-06T07:47:36;4.53;;;0.80;;
1885;SDS011;943;51.568;6.998;2022-07-06T07:50:06;3.97;;;1.07;;
1885;SDS011;943;51.568;6.998;2022-07-06T07:52:35;3.47;;;0.70;;
1885;SDS011;943;51.568;6.998;2022-07-06T07:55:03;2.93;;;0.90;;
1885;SDS011;943;51.568;6.998;2022-07-06T07:57:52;4.07;;;0.80;;
1885;SDS011;943;51.568;6.998;2022-07-06T08:00:19;3.67;;;0.93;;
1885;SDS011;943;51.568;6.998;2022-07-06T08:02:53;4.10;;;1.03;;
1885;SDS011;943;51.568;6.998;2022-07-06T08:05:21;5.50;;;1.10;;
1885;SDS011;943;51.568;6.998;2022-07-06T08:07:49;4.53;;;1.17;;
1885;SDS011;943;51.568;6.998;2022-07-06T08:10:17;2.60;;;0.80;;
1885;SDS011;943;51.568;6.998;2022-07-06T08:12:46;7.83;;;1.27;;
1885;SDS011;943;51.568;6.998;2022-07-06T08:15:14;1.97;;;0.80;;
1885;SDS011;943;51.568;6.998;2022-07-06T08:17:42;2.57;;;1.10;;
1885;SDS011;943;51.568;6.998;2022-07-06T08:20:11;2.73;;;0.80;;
1885;SDS011;943;51.568;6.998;2022-07-06T08:22:39;4.37;;;1.33;;
1885;SDS011;943;51.568;6.998;2022-07-06T08:25:09;2.37;;;1.00;;
1885;SDS011;943;51.568;6.998;2022-07-06T08:27:37;5.67;;;0.87;;
1885;SDS011;943;51.568;6.998;2022-07-06T08:30:05;3.23;;;1.10;;
1885;SDS011;943;51.568;6.998;2022-07-06T08:32:39;4.27;;;0.90;;
1885;SDS011;943;51.568;6.998;2022-07-06T08:35:28;2.50;;;0.80;;
1885;SDS011;943;51.568;6.998;2022-07-06T08:37:57;3.00;;;1.23;;
1885;SDS011;943;51.568;6.998;2022-07-06T08:40:25;5.57;;;1.60;;
1885;SDS011;943;51.568;6.998;2022-07-06T08:43:07;4.20;;;1.30;;
1885;SDS011;943;51.568;6.998;2022-07-06T08:45:35;4.30;;;1.07;;
1885;SDS011;943;51.568;6.998;2022-07-06T08:48:04;2.90;;;1.00;;
1885;SDS011;943;51.568;6.998;2022-07-06T08:50:34;3.00;;;1.00;;
1885;SDS011;943;51.568;6.998;2022-07-06T08:53:03;2.77;;;1.10;;
1885;SDS011;943;51.568;6.998;2022-07-06T08:55:32;2.73;;;0.83;;
1885;SDS011;943;51.568;6.998;2022-07-06T08:58:02;4.53;;;1.30;;
1885;SDS011;943;51.568;6.998;2022-07-06T09:00:31;3.53;;;0.97;;
1885;SDS011;943;51.568;6.998;2022-07-06T09:03:00;3.30;;;0.70;;
1885;SDS011;943;51.568;6.998;2022-07-06T09:05:29;3.10;;;0.80;;
1885;SDS011;943;51.568;6.998;2022-07-06T09:07:59;2.53;;;0.90;;
1885;SDS011;943;51.568;6.998;2022-07-06T09:10:29;2.20;;;0.80;;
1885;SDS011;943;51.568;6.998;2022-07-06T09:13:06;4.40;;;1.20;;
1885;SDS011;943;51.568;6.998;2022-07-06T09:15:36;5.87;;;1.40;;
1885;SDS011;943;51.568;6.998;2022-07-06T09:18:06;2.80;;;0.90;;
1885;SDS011;943;51.568;6.998;2022-07-06T09:20:34;5.17;;;1.13;;
1885;SDS011;943;51.568;6.998;2022-07-06T09:23:04;6.17;;;1.10;;
1885;SDS011;943;51.568;6.998;2022-07-06T09:25:42;5.73;;;0.93;;
1885;SDS011;943;51.568;6.998;2022-07-06T09:28:17;5.73;;;0.97;;
1885;SDS011;943;51.568;6.998;2022-07-06T09:30:45;3.70;;;0.93;;
1885;SDS011;943;51.568;6.998;2022-07-06T09:33:13;3.70;;;0.90;;
1885;SDS011;943;51.568;6.998;2022-07-06T09:35:44;5.53;;;0.90;;
1885;SDS011;943;51.568;6.998;2022-07-06T09:38:14;7.10;;;1.13;;
1885;SDS011;943;51.568;6.998;2022-07-06T09:40:43;2.30;;;0.77;;
1885;SDS011;943;51.568;6.998;2022-07-06T09:43:16;8.63;;;1.17;;
1885;SDS011;943;51.568;6.998;2022-07-06T09:48:23;5.30;;;1.20;;
1885;SDS011;943;51.568;6.998;2022-07-06T09:51:01;6.33;;;0.97;;
1885;SDS011;943;51.568;6.998;2022-07-06T09:53:30;2.77;;;0.87;;
1885;SDS011;943;51.568;6.998;2022-07-06T09:55:57;2.87;;;0.90;;
1885;SDS011;943;51.568;6.998;2022-07-06T09:58:25;5.00;;;0.90;;
1885;SDS011;943;51.568;6.998;2022-07-06T10:01:12;3.00;;;1.07;;
1885;SDS011;943;51.568;6.998;2022-07-06T10:03:56;5.53;;;1.20;;
1885;SDS011;943;51.568;6.998;2022-07-06T10:06:25;6.10;;;0.83;;
1885;SDS011;943;51.568;6.998;2022-07-06T10:08:53;2.97;;;1.00;;
1885;SDS011;943;51.568;6.998;2022-07-06T10:11:25;3.70;;;1.10;;
1885;SDS011;943;51.568;6.998;2022-07-06T10:13:56;2.50;;;0.90;;
1885;SDS011;943;51.568;6.998;2022-07-06T10:16:25;4.70;;;1.17;;
1885;SDS011;943;51.568;6.998;2022-07-06T10:18:53;4.33;;;0.80;;
1885;SDS011;943;51.568;6.998;2022-07-06T10:21:23;4.77;;;1.00;;
1885;SDS011;943;51.568;6.998;2022-07-06T10:23:54;2.30;;;0.70;;
1885;SDS011;943;51.568;6.998;2022-07-06T10:26:26;3.83;;;0.70;;
1885;SDS011;943;51.568;6.998;2022-07-06T10:28:58;3.77;;;0.80;;
1885;SDS011;943;51.568;6.998;2022-07-06T10:31:27;3.63;;;0.80;;
1885;SDS011;943;51.568;6.998;2022-07-06T10:33:59;4.53;;;1.20;;
1885;SDS011;943;51.568;6.998;2022-07-06T10:36:36;5.53;;;1.00;;
1885;SDS011;943;51.568;6.998;2022-07-06T10:39:09;5.50;;;1.30;;
1885;SDS011;943;51.568;6.998;2022-07-06T10:41:56;8.43;;;1.03;;
1885;SDS011;943;51.568;6.998;2022-07-06T10:44:25;2.20;;;0.80;;
1885;SDS011;943;51.568;6.998;2022-07-06T10:46:55;1.77;;;0.70;;
1885;SDS011;943;51.568;6.998;2022-07-06T10:49:26;3.20;;;0.90;;
1885;SDS011;943;51.568;6.998;2022-07-06T10:52:17;2.90;;;0.80;;
1885;SDS011;943;51.568;6.998;2022-07-06T10:54:44;4.30;;;0.90;;
1885;SDS011;943;51.568;6.998;2022-07-06T10:57:13;4.80;;;1.17;;
1885;SDS011;943;51.568;6.998;2022-07-06T10:59:58;2.80;;;0.87;;
1885;SDS011;943;51.568;6.998;2022-07-06T11:02:37;4.17;;;0.70;;
1885;SDS011;943;51.568;6.998;2022-07-06T11:05:10;4.53;;;0.80;;
1885;SDS011;943;51.568;6.998;2022-07-06T11:19:15;3.93;;;0.90;;
1885;SDS011;943;51.568;6.998;2022-07-06T11:21:48;3.70;;;1.10;;
1885;SDS011;943;51.568;6.998;2022-07-06T11:24:28;4.10;;;1.20;;
1885;SDS011;943;51.568;6.998;2022-07-06T11:27:00;3.47;;;0.90;;
1885;SDS011;943;51.568;6.998;2022-07-06T11:29:29;2.50;;;0.90;;
1885;SDS011;943;51.568;6.998;2022-07-06T11:31:58;3.10;;;0.80;;
1885;SDS011;943;51.568;6.998;2022-07-06T11:34:32;3.60;;;1.43;;
1885;SDS011;943;51.568;6.998;2022-07-06T11:37:07;3.90;;;0.80;;
1885;SDS011;943;51.568;6.998;2022-07-06T11:39:45;3.43;;;0.87;;
1885;SDS011;943;51.568;6.998;2022-07-06T11:42:15;3.13;;;0.87;;
1885;SDS011;943;51.568;6.998;2022-07-06T11:44:44;4.07;;;1.10;;
1885;SDS011;943;51.568;6.998;2022-07-06T11:47:16;4.20;;;1.10;;
1885;SDS011;943;51.568;6.998;2022-07-06T11:49:50;3.77;;;0.90;;
1885;SDS011;943;51.568;6.998;2022-07-06T11:52:19;3.33;;;0.93;;
1885;SDS011;943;51.568;6.998;2022-07-06T11:54:46;3.53;;;0.70;;
1885;SDS011;943;51.568;6.998;2022-07-06T11:57:14;3.40;;;1.00;;
1885;SDS011;943;51.568;6.998;2022-07-06T11:59:43;5.13;;;1.00;;
1885;SDS011;943;51.568;6.998;2022-07-06T12:02:16;4.20;;;1.10;;
1885;SDS011;943;51.568;6.998;2022-07-06T12:04:44;4.30;;;1.17;;
1885;SDS011;943;51.568;6.998;2022-07-06T12:07:14;3.20;;;0.97;;
1885;SDS011;943;51.568;6.998;2022-07-06T12:09:44;1.97;;;0.80;;
1885;SDS011;943;51.568;6.998;2022-07-06T12:12:14;4.00;;;1.30;;
1885;SDS011;943;51.568;6.998;2022-07-06T12:14:44;4.47;;;1.10;;
1885;SDS011;943;51.568;6.998;2022-07-06T12:17:12;3.40;;;1.40;;
1885;SDS011;943;51.568;6.998;2022-07-06T12:19:42;2.43;;;0.90;;
1885;SDS011;943;51.568;6.998;2022-07-06T12:22:11;5.10;;;0.93;;
1885;SDS011;943;51.568;6.998;2022-07-06T12:24:42;6.33;;;1.20;;
1885;SDS011;943;51.568;6.998;2022-07-06T12:27:14;2.40;;;1.00;;
1885;SDS011;943;51.568;6.998;2022-07-06T12:29:47;2.33;;;0.87;;
1885;SDS011;943;51.568;6.998;2022-07-06T12:32:16;3.20;;;0.90;;
1885;SDS011;943;51.568;6.998;2022-07-06T12:35:06;2.37;;;0.80;;
1885;SDS011;943;51.568;6.998;2022-07-06T12:37:37;2.67;;;0.97;;
1885;SDS011;943;51.568;6.998;2022-07-06T12:40:21;2.80;;;0.90;;
1885;SDS011;943;51.568;6.998;2022-07-06T12:42:54;2.90;;;0.93;;
1885;SDS011;943;51.568;6.998;2022-07-06T12:45:27;2.30;;;1.10;;
1885;SDS011;943;51.568;6.998;2022-07-06T12:48:02;2.70;;;0.80;;
1885;SDS011;943;51.568;6.998;2022-07-06T12:50:36;2.77;;;0.90;;
1885;SDS011;943;51.568;6.998;2022-07-06T12:56:10;2.73;;;1.10;;
1885;SDS011;943;51.568;6.998;2022-07-06T12:58:53;2.60;;;0.80;;
1885;SDS011;943;51.568;6.998;2022-07-06T13:01:27;3.03;;;0.73;;
1885;SDS011;943;51.568;6.998;2022-07-06T13:03:55;4.13;;;0.93;;
1885;SDS011;943;51.568;6.998;2022-07-06T13:06:31;2.27;;;0.97;;
1885;SDS011;943;51.568;6.998;2022-07-06T13:09:03;2.83;;;1.10;;
1885;SDS011;943;51.568;6.998;2022-07-06T13:11:31;2.30;;;1.00;;
1885;SDS011;943;51.568;6.998;2022-07-06T13:13:59;2.83;;;0.70;;
1885;SDS011;943;51.568;6.998;2022-07-06T13:16:27;3.83;;;0.70;;
1885;SDS011;943;51.568;6.998;2022-07-06T13:19:01;2.10;;;0.70;;
1885;SDS011;943;51.568;6.998;2022-07-06T13:21:30;2.37;;;1.00;;
1885;SDS011;943;51.568;6.998;2022-07-06T13:23:58;4.87;;;0.87;;
1885;SDS011;943;51.568;6.998;2022-07-06T13:26:26;2.87;;;0.90;;
1885;SDS011;943;51.568;6.998;2022-07-06T13:28:54;3.90;;;0.73;;
1885;SDS011;943;51.568;6.998;2022-07-06T13:31:23;3.17;;;1.10;;
1885;SDS011;943;51.568;6.998;2022-07-06T13:33:51;2.37;;;0.80;;
1885;SDS011;943;51.568;6.998;2022-07-06T13:36:18;3.97;;;1.40;;
1885;SDS011;943;51.568;6.998;2022-07-06T13:38:46;2.00;;;0.67;;
1885;SDS011;943;51.568;6.998;2022-07-06T13:41:13;2.10;;;0.90;;
1885;SDS011;943;51.568;6.998;2022-07-06T13:43:41;1.93;;;0.80;;
1885;SDS011;943;51.568;6.998;2022-07-06T13:46:08;5.60;;;1.20;;
1885;SDS011;943;51.568;6.998;2022-07-06T13:48:37;3.47;;;1.00;;
1885;SDS011;943;51.568;6.998;2022-07-06T13:51:05;3.07;;;1.43;;
1885;SDS011;943;51.568;6.998;2022-07-06T13:53:32;2.20;;;0.90;;
1885;SDS011;943;51.568;6.998;2022-07-06T13:56:01;2.33;;;0.83;;
1885;SDS011;943;51.568;6.998;2022-07-06T13:58:30;4.83;;;1.30;;
1885;SDS011;943;51.568;6.998;2022-07-06T14:00:57;4.33;;;1.77;;
1885;SDS011;943;51.568;6.998;2022-07-06T14:03:25;5.70;;;1.47;;
1885;SDS011;943;51.568;6.998;2022-07-06T14:06:00;3.20;;;1.10;;
1885;SDS011;943;51.568;6.998;2022-07-06T14:08:28;3.47;;;0.80;;
1885;SDS011;943;51.568;6.998;2022-07-06T14:10:56;5.20;;;0.90;;
1885;SDS011;943;51.568;6.998;2022-07-06T14:13:24;6.20;;;0.90;;
1885;SDS011;943;51.568;6.998;2022-07-06T14:15:53;2.43;;;0.80;;
1885;SDS011;943;51.568;6.998;2022-07-06T14:18:21;2.93;;;0.80;;
1885;SDS011;943;51.568;6.998;2022-07-06T14:20:50;3.30;;;1.00;;
1885;SDS011;943;51.568;6.998;2022-07-06T14:23:20;6.60;;;1.10;;
1885;SDS011;943;51.568;6.998;2022-07-06T14:25:49;4.27;;;0.90;;
1885;SDS011;943;51.568;6.998;2022-07-06T14:28:17;2.50;;;0.70;;
1885;SDS011;943;51.568;6.998;2022-07-06T14:30:45;2.87;;;0.70;;
1885;SDS011;943;51.568;6.998;2022-07-06T14:33:13;4.00;;;1.10;;
1885;SDS011;943;51.568;6.998;2022-07-06T14:35:43;2.00;;;0.80;;
1885;SDS011;943;51.568;6.998;2022-07-06T14:38:17;3.00;;;0.97;;
1885;SDS011;943;51.568;6.998;2022-07-06T14:40:47;5.80;;;0.83;;
1885;SDS011;943;51.568;6.998;2022-07-06T14:43:16;2.67;;;0.80;;
1885;SDS011;943;51.568;6.998;2022-07-06T14:45:46;3.13;;;0.67;;
1885;SDS011;943;51.568;6.998;2022-07-06T14:48:14;2.57;;;1.00;;
1885;SDS011;943;51.568;6.998;2022-07-06T14:50:42;4.13;;;1.40;;
1885;SDS011;943;51.568;6.998;2022-07-06T14:53:10;2.93;;;0.80;;
1885;SDS011;943;51.568;6.998;2022-07-06T14:55:37;5.73;;;0.70;;
1885;SDS011;943;51.568;6.998;2022-07-06T14:58:05;2.30;;;0.87;;
1885;SDS011;943;51.568;6.998;2022-07-06T15:00:32;3.57;;;0.93;;
1885;SDS011;943;51.568;6.998;2022-07-06T15:03:00;6.00;;;1.20;;
1885;SDS011;943;51.568;6.998;2022-07-06T15:05:30;4.00;;;0.77;;
1885;SDS011;943;51.568;6.998;2022-07-06T15:08:05;4.33;;;1.00;;
1885;SDS011;943;51.568;6.998;2022-07-06T15:10:36;2.40;;;0.80;;
1885;SDS011;943;51.568;6.998;2022-07-06T15:13:05;3.07;;;1.10;;
1885;SDS011;943;51.568;6.998;2022-07-06T15:15:33;5.07;;;1.17;;
1885;SDS011;943;51.568;6.998;2022-07-06T15:18:25;2.20;;;0.70;;
1885;SDS011;943;51.568;6.998;2022-07-06T15:20:58;2.07;;;0.67;;
1885;SDS011;943;51.568;6.998;2022-07-06T15:23:30;2.07;;;0.87;;
1885;SDS011;943;51.568;6.998;2022-07-06T15:26:04;2.37;;;1.00;;
1885;SDS011;943;51.568;6.998;2022-07-06T15:28:36;1.90;;;0.80;;
1885;SDS011;943;51.568;6.998;2022-07-06T15:31:04;8.40;;;0.90;;
1885;SDS011;943;51.568;6.998;2022-07-06T15:33:42;2.43;;;0.80;;
1885;SDS011;943;51.568;6.998;2022-07-06T15:36:10;4.70;;;1.00;;
1885;SDS011;943;51.568;6.998;2022-07-06T15:38:41;2.00;;;0.67;;
1885;SDS011;943;51.568;6.998;2022-07-06T15:41:19;4.27;;;0.80;;
1885;SDS011;943;51.568;6.998;2022-07-06T15:43:57;5.93;;;1.10;;
1885;SDS011;943;51.568;6.998;2022-07-06T15:46:27;2.97;;;0.90;;
1885;SDS011;943;51.568;6.998;2022-07-06T15:48:55;2.70;;;1.00;;
1885;SDS011;943;51.568;6.998;2022-07-06T15:51:24;3.97;;;0.90;;
1885;SDS011;943;51.568;6.998;2022-07-06T15:53:55;4.67;;;1.23;;
1885;SDS011;943;51.568;6.998;2022-07-06T15:56:27;3.80;;;0.67;;
1885;SDS011;943;51.568;6.998;2022-07-06T15:58:55;6.00;;;1.00;;
1885;SDS011;943;51.568;6.998;2022-07-06T16:01:23;4.70;;;0.90;;